Time;durP1;ratioP1;P1;durP2;ratioP2;P2;SDS_P1;SDS_P2;PMS_P1;PMS_P2;Temp;Humidity;BMP_temperature;BMP_pressure;BME280_temperature;BME280_humidity;BME280_pressure;Samples;Min_cycle;Max_cycle;Signal;HPM_P1;HPM_P2
2022/07/01 00:02:03;;;;;;;11.60;5.90;;;;;;;19.25;96.98;99654.98;104814;1274;60670;-71
2022/07/01 00:04:51;;;;;;;12.50;6.50;;;;;;;19.25;96.60;99650.48;104932;1274;61952;-67
2022/07/01 00:07:58;;;;;;;10.80;6.30;;;;;;;19.24;96.51;99650.73;104836;1274;74803;-69
2022/07/01 00:10:45;;;;;;;11.60;6.00;;;;;;;19.22;97.02;99648.80;104842;1274;69707;-70
2022/07/01 00:13:33;;;;;;;11.20;5.90;;;;;;;19.21;96.97;99657.58;104805;1274;72030;-69
2022/07/01 00:16:20;;;;;;;13.40;6.70;;;;;;;19.20;96.80;99660.01;104951;1274;60801;-69
2022/07/01 00:19:08;;;;;;;13.80;6.80;;;;;;;19.19;97.04;99661.23;104969;1274;59653;-68
2022/07/01 00:21:56;;;;;;;12.10;6.40;;;;;;;19.14;97.52;99659.80;104864;1274;73633;-68
2022/07/01 00:24:46;;;;;;;11.70;6.20;;;;;;;19.16;97.60;99662.08;104900;1274;68554;-68
2022/07/01 00:27:43;;;;;;;11.10;6.10;;;;;;;19.15;97.77;99661.14;104794;1272;73455;-69
2022/07/01 00:30:30;;;;;;;11.40;6.40;;;;;;;19.14;97.62;99661.84;105064;1274;59717;-68
2022/07/01 00:33:19;;;;;;;12.30;6.10;;;;;;;19.14;97.71;99666.19;104950;1274;62104;-69
2022/07/01 00:36:07;;;;;;;11.80;6.10;;;;;;;19.13;97.79;99665.46;105025;1274;73584;-69
2022/07/01 00:38:55;;;;;;;11.20;5.80;;;;;;;19.13;97.76;99663.77;104914;1274;68656;-68
2022/07/01 00:41:44;;;;;;;10.80;5.70;;;;;;;19.12;98.28;99667.23;105145;1274;73395;-70
2022/07/01 00:44:32;;;;;;;13.40;6.30;;;;;;;19.12;98.20;99668.16;104962;1274;60764;-70
2022/07/01 00:47:20;;;;;;;12.60;6.40;;;;;;;19.13;98.01;99674.02;105010;1274;61592;-68
2022/07/01 00:50:14;;;;;;;14.70;6.80;;;;;;;19.15;97.94;99678.23;104849;1274;73537;-70
2022/07/01 00:53:04;;;;;;;12.10;6.60;;;;;;;19.17;97.90;99677.81;105049;1274;67858;-69
2022/07/01 00:55:53;;;;;;;11.90;6.70;;;;;;;19.21;97.70;99685.80;104997;1275;71772;-69
2022/07/01 00:58:41;;;;;;;12.00;6.40;;;;;;;19.25;97.53;99690.34;104969;1274;61020;-68
2022/07/01 01:01:29;;;;;;;10.70;6.00;;;;;;;19.26;97.41;99688.98;104853;1274;61793;-68
2022/07/01 01:04:17;;;;;;;12.10;6.50;;;;;;;19.25;97.70;99687.55;105208;1274;74334;-70
2022/07/01 01:07:05;;;;;;;12.10;6.30;;;;;;;19.22;98.02;99686.57;105050;1273;68826;-72
2022/07/01 01:09:53;;;;;;;12.10;7.00;;;;;;;19.19;98.28;99680.22;104929;1274;74253;-71
2022/07/01 01:12:42;;;;;;;11.30;7.10;;;;;;;19.18;97.92;99684.71;104812;1274;59994;-70
2022/07/01 01:15:31;;;;;;;14.10;7.60;;;;;;;19.18;97.67;99681.32;104892;1274;62087;-72
2022/07/01 01:18:19;;;;;;;14.00;7.10;;;;;;;19.17;97.40;99685.16;105084;1274;71961;-72
2022/07/01 01:21:06;;;;;;;10.90;6.10;;;;;;;19.16;97.63;99676.27;104869;1274;69622;-69
2022/07/01 01:23:54;;;;;;;12.50;6.70;;;;;;;19.16;97.66;99681.60;104815;1274;74432;-70
2022/07/01 01:26:42;;;;;;;13.10;7.10;;;;;;;19.12;97.76;99690.52;104828;1272;59762;-72
2022/07/01 01:29:31;;;;;;;11.90;6.90;;;;;;;19.09;97.90;99694.77;104891;1274;60473;-73
2022/07/01 01:32:19;;;;;;;12.50;6.90;;;;;;;19.08;98.49;99692.77;105123;1274;73089;-71
2022/07/01 01:35:09;;;;;;;12.20;6.70;;;;;;;19.04;98.89;99692.98;105283;1274;68601;-71
2022/07/01 01:37:57;;;;;;;13.20;7.70;;;;;;;19.02;99.28;99698.08;105005;1274;72802;-72
2022/07/01 01:40:44;;;;;;;14.20;7.20;;;;;;;19.00;99.51;99702.83;104964;1274;59750;-74
2022/07/01 01:43:34;;;;;;;11.50;7.40;;;;;;;18.99;99.69;99711.77;105015;1274;61907;-71
2022/07/01 01:46:22;;;;;;;11.80;7.60;;;;;;;18.98;99.97;99717.84;104922;1274;74663;-67
2022/07/01 01:49:10;;;;;;;13.60;8.10;;;;;;;18.97;99.88;99721.18;104933;1274;69986;-66
2022/07/01 01:51:59;;;;;;;13.70;8.30;;;;;;;18.97;100.00;99731.60;104877;1273;74362;-69
2022/07/01 01:54:48;;;;;;;13.50;8.60;;;;;;;19.01;100.00;99742.41;104771;1274;60001;-69
2022/07/01 01:57:37;;;;;;;13.80;8.30;;;;;;;19.05;100.00;99736.96;104911;1274;60916;-67
2022/07/01 02:00:25;;;;;;;14.90;8.00;;;;;;;19.09;100.00;99742.79;105040;1274;73376;-67
2022/07/01 02:03:13;;;;;;;13.00;7.50;;;;;;;19.14;99.08;99746.38;104800;1273;68537;-67
2022/07/01 02:06:02;;;;;;;12.70;7.70;;;;;;;19.18;97.43;99742.64;105386;1274;73246;-67
2022/07/01 02:08:50;;;;;;;14.50;7.80;;;;;;;19.23;96.80;99741.14;104893;1274;59651;-68
2022/07/01 02:11:38;;;;;;;13.70;7.90;;;;;;;19.27;95.54;99749.33;105096;1274;60345;-68
2022/07/01 02:14:26;;;;;;;13.70;7.50;;;;;;;19.32;94.53;99747.38;104701;1274;73636;-68
2022/07/01 02:17:13;;;;;;;15.00;7.60;;;;;;;19.38;94.03;99740.62;104973;1274;69856;-69
2022/07/01 02:20:02;;;;;;;12.50;7.10;;;;;;;19.40;93.54;99747.84;104933;1274;73464;-70
2022/07/01 02:22:51;;;;;;;15.50;7.10;;;;;;;19.44;93.25;99745.02;104683;1274;61375;-69
2022/07/01 02:25:39;;;;;;;14.70;7.90;;;;;;;19.45;93.19;99751.60;105044;1274;59722;-69
2022/07/01 02:28:27;;;;;;;14.70;7.60;;;;;;;19.47;92.91;99752.47;105058;1274;74262;-68
2022/07/01 02:31:15;;;;;;;12.00;6.70;;;;;;;19.50;92.53;99752.30;104984;1274;69029;-68
2022/07/01 02:34:03;;;;;;;12.70;6.60;;;;;;;19.53;92.04;99745.06;104768;1274;73342;-69
2022/07/01 02:36:54;;;;;;;12.90;7.10;;;;;;;19.57;91.06;99741.32;104810;1273;59694;-68
2022/07/01 02:39:43;;;;;;;13.50;7.90;;;;;;;19.61;90.75;99738.72;105091;1274;60755;-68
2022/07/01 02:42:35;;;;;;;13.60;7.30;;;;;;;19.65;90.21;99738.60;104969;1272;73559;-69
2022/07/01 02:45:25;;;;;;;14.20;6.70;;;;;;;19.69;89.70;99740.11;104809;1274;69575;-69
2022/07/01 02:48:13;;;;;;;13.80;6.60;;;;;;;19.73;89.33;99747.92;104782;1273;73295;-69
2022/07/01 02:51:03;;;;;;;15.30;7.40;;;;;;;19.76;89.44;99745.40;105179;1274;59701;-69
2022/07/01 02:53:51;;;;;;;13.90;8.00;;;;;;;19.77;89.45;99743.70;104870;1274;59589;-69
2022/07/01 02:56:39;;;;;;;14.50;6.80;;;;;;;19.79;89.32;99725.83;104869;1274;73426;-69
2022/07/01 02:59:28;;;;;;;15.00;7.20;;;;;;;19.80;89.11;99726.91;104868;1273;66777;-69
2022/07/01 03:02:21;;;;;;;15.60;7.20;;;;;;;19.82;89.08;99734.45;104862;1274;74653;-70
2022/07/01 03:05:10;;;;;;;13.90;7.00;;;;;;;19.84;89.12;99734.77;104797;1274;59957;-69
2022/07/01 03:07:58;;;;;;;13.80;7.50;;;;;;;19.85;88.92;99727.73;104891;1274;61451;-70
2022/07/01 03:10:45;;;;;;;14.00;6.70;;;;;;;19.87;88.30;99720.69;105058;1274;73000;-70
2022/07/01 03:13:33;;;;;;;12.00;6.50;;;;;;;19.91;88.06;99714.96;104863;1274;68596;-70
2022/07/01 03:16:21;;;;;;;15.60;7.10;;;;;;;19.95;87.79;99716.67;104857;1274;73606;-72
2022/07/01 03:19:09;;;;;;;12.00;6.70;;;;;;;19.99;87.41;99712.60;104908;1274;59675;-71
2022/07/01 03:21:57;;;;;;;11.80;7.40;;;;;;;20.02;86.88;99713.02;104948;1274;60356;-70
2022/07/01 03:24:47;;;;;;;13.70;7.60;;;;;;;20.08;86.19;99713.67;104858;1273;74761;-69
2022/07/01 03:27:35;;;;;;;15.20;7.30;;;;;;;20.13;85.78;99714.63;105032;1274;68353;-69
2022/07/01 03:30:23;;;;;;;14.50;6.60;;;;;;;20.17;85.56;99715.52;105021;1274;73814;-68
2022/07/01 03:33:11;;;;;;;14.70;7.20;;;;;;;20.22;84.93;99711.36;105066;1274;59771;-69
2022/07/01 03:36:00;;;;;;;11.80;6.80;;;;;;;20.27;84.41;99712.80;105149;1274;59528;-69
2022/07/01 03:38:49;;;;;;;13.40;6.90;;;;;;;20.29;83.97;99711.91;104982;1274;74044;-70
2022/07/01 03:41:36;;;;;;;14.10;6.90;;;;;;;20.30;83.74;99710.91;104900;1273;68744;-69
2022/07/01 03:44:25;;;;;;;13.70;7.40;;;;;;;20.31;83.54;99704.12;104996;1274;73792;-68
2022/07/01 03:47:13;;;;;;;13.20;6.80;;;;;;;20.31;83.20;99690.91;104827;1274;59886;-68
2022/07/01 03:50:01;;;;;;;15.10;7.40;;;;;;;20.33;83.25;99685.35;104852;1273;59707;-70
2022/07/01 03:54:29;;;;;;;12.50;7.20;;;;;;;20.33;82.97;99685.27;104901;1274;72469;-68
2022/07/01 03:55:57;;;;;;;16.50;7.20;;;;;;;20.33;82.65;99690.30;105124;1274;69765;-68
2022/07/01 03:58:45;;;;;;;13.30;7.20;;;;;;;20.33;82.29;99685.17;104992;1274;73006;-69
2022/07/01 04:01:33;;;;;;;14.90;6.50;;;;;;;20.32;82.17;99684.55;104910;1274;59713;-69
2022/07/01 04:04:23;;;;;;;13.90;6.40;;;;;;;20.33;81.76;99684.27;104812;1274;60442;-68
2022/07/01 04:07:11;;;;;;;15.00;6.90;;;;;;;20.36;81.56;99679.70;105173;1274;73694;-69
2022/07/01 04:10:00;;;;;;;11.30;7.00;;;;;;;20.39;80.63;99677.30;104980;1274;69589;-71
2022/07/01 04:12:48;;;;;;;12.70;7.00;;;;;;;20.43;80.43;99677.42;104974;1274;73523;-71
2022/07/01 04:15:54;;;;;;;13.10;6.70;;;;;;;20.48;79.48;99672.61;105729;1273;59740;-71
2022/07/01 04:18:42;;;;;;;11.30;6.30;;;;;;;20.56;79.20;99678.83;104958;1274;61597;-71
2022/07/01 04:24:37;;;;;;;11.80;6.40;;;;;;;20.80;78.08;99687.92;104809;1274;68946;-69
2022/07/01 04:27:25;;;;;;;14.80;7.30;;;;;;;20.92;77.95;99684.61;105703;1273;72793;-72
2022/07/01 04:30:14;;;;;;;19.10;6.70;;;;;;;21.08;77.46;99683.60;104939;1273;59689;-70
2022/07/01 04:33:02;;;;;;;14.40;7.50;;;;;;;21.30;76.39;99681.42;105020;1272;60589;-76
2022/07/01 04:35:50;;;;;;;13.70;6.80;;;;;;;21.55;75.45;99685.00;105040;1274;73068;-78
2022/07/01 04:38:39;;;;;;;15.90;6.80;;;;;;;21.83;74.29;99686.42;105025;1274;66364;-77
2022/07/01 04:44:36;;;;;;;15.90;7.20;;;;;;;22.53;71.19;99690.98;105341;1274;59523;-79
2022/07/01 04:47:32;;;;;;;16.70;9.50;;;;;;;22.97;68.54;99692.06;105229;1274;59627;-81
2022/07/01 04:50:20;;;;;;;15.40;6.60;;;;;;;23.47;66.45;99681.20;105334;1274;73300;-79
2022/07/01 04:53:08;;;;;;;13.50;5.60;;;;;;;23.97;63.92;99680.33;105262;1274;69371;-78
2022/07/01 04:55:55;;;;;;;12.20;5.80;;;;;;;24.46;61.60;99676.98;105223;1274;74897;-80
2022/07/01 04:58:43;;;;;;;12.70;5.40;;;;;;;25.03;59.93;99677.27;105315;1274;59970;-77
2022/07/01 05:01:31;;;;;;;14.40;5.70;;;;;;;25.55;57.36;99673.83;105587;1274;59633;-80
2022/07/01 05:04:19;;;;;;;10.70;5.70;;;;;;;26.09;56.45;99672.86;105503;1274;71669;-80
2022/07/01 05:07:27;;;;;;;10.40;4.70;;;;;;;26.64;55.08;99665.89;105456;1272;68009;-78
2022/07/01 05:10:15;;;;;;;16.40;5.10;;;;;;;27.34;52.72;99659.02;105458;1274;71915;-79
2022/07/01 05:13:03;;;;;;;21.20;6.70;;;;;;;27.77;49.06;99658.34;105554;1274;59642;-79
2022/07/01 05:15:50;;;;;;;11.90;5.10;;;;;;;28.11;49.30;99648.40;105128;1274;61358;-78
2022/07/01 05:22:00;;;;;;;14.40;4.70;;;;;;;28.92;47.44;99653.18;105094;1274;516667;-77
2022/07/01 05:24:48;;;;;;;9.90;4.00;;;;;;;29.57;45.19;99655.20;105132;1274;73936;-79
2022/07/01 05:27:36;;;;;;;10.90;4.20;;;;;;;29.92;43.51;99658.38;104813;1274;59874;-73
2022/07/01 05:30:24;;;;;;;18.30;8.50;;;;;;;30.01;44.11;99666.15;104789;1274;60518;-70
2022/07/01 05:33:11;;;;;;;14.50;4.80;;;;;;;30.39;43.76;99670.10;105392;1274;73471;-80
2022/07/01 05:36:01;;;;;;;11.10;4.60;;;;;;;31.05;40.65;99668.69;105095;1273;67806;-79
2022/07/01 05:38:50;;;;;;;11.10;4.50;;;;;;;31.76;39.61;99675.35;105258;1274;73384;-80
2022/07/01 05:41:39;;;;;;;10.50;4.20;;;;;;;32.49;38.42;99671.90;105153;1274;60235;-80
2022/07/01 05:44:27;;;;;;;9.80;3.60;;;;;;;33.20;37.44;99678.75;105234;1274;59539;-79
2022/07/01 05:47:14;;;;;;;14.10;3.90;;;;;;;33.93;36.86;99681.83;105468;1273;73412;-82
2022/07/01 05:50:03;;;;;;;11.20;3.60;;;;;;;34.68;36.04;99680.36;105329;1274;69428;-81
2022/07/01 05:52:52;;;;;;;13.10;3.60;;;;;;;35.29;34.50;99682.01;105067;1274;72593;-76
2022/07/01 05:55:41;;;;;;;12.40;4.10;;;;;;;35.79;33.80;99683.24;105162;1273;59656;-74
2022/07/01 05:58:28;;;;;;;11.50;4.10;;;;;;;36.16;32.57;99691.48;105031;1273;59608;-78
2022/07/01 06:01:16;;;;;;;11.20;4.10;;;;;;;36.50;32.73;99690.80;105094;1274;73174;-74
2022/07/01 06:04:04;;;;;;;17.80;5.10;;;;;;;36.97;32.97;99688.70;104988;1271;67805;-70
2022/07/01 06:06:52;;;;;;;13.20;4.30;;;;;;;37.37;33.20;99686.70;105311;1273;72960;-82
2022/07/01 06:09:40;;;;;;;13.10;4.60;;;;;;;37.78;32.49;99684.20;104986;1274;59794;-72
2022/07/01 06:12:28;;;;;;;12.80;4.00;;;;;;;38.12;31.68;99683.03;105200;1272;61601;-75
2022/07/01 06:15:16;;;;;;;13.90;4.40;;;;;;;38.37;31.18;99679.31;105140;1273;73053;-75
2022/07/01 06:18:04;;;;;;;12.60;3.70;;;;;;;38.76;28.84;99676.89;104996;1273;68606;-73
2022/07/01 06:20:51;;;;;;;12.90;3.80;;;;;;;39.35;27.90;99679.59;105041;1272;71340;-73
2022/07/01 06:23:39;;;;;;;13.40;4.10;;;;;;;39.87;27.75;99677.03;104718;1274;59857;-72
2022/07/01 06:26:27;;;;;;;19.60;4.80;;;;;;;40.24;27.78;99676.22;104708;1274;60543;-71
2022/07/01 06:29:14;;;;;;;11.80;4.30;;;;;;;40.57;27.88;99671.73;105256;1272;74783;-78
2022/07/01 06:32:05;;;;;;;16.40;4.90;;;;;;;40.81;27.50;99661.33;105089;1274;66864;-73
2022/07/01 06:34:54;;;;;;;13.90;4.60;;;;;;;40.92;27.31;99664.96;105296;1274;71557;-72
2022/07/01 06:37:42;;;;;;;11.20;3.90;;;;;;;40.91;27.10;99666.20;104970;1273;59553;-70
2022/07/01 06:40:32;;;;;;;11.40;4.00;;;;;;;40.84;26.88;99667.33;105144;1274;61295;-74
2022/07/01 06:43:20;;;;;;;10.30;4.20;;;;;;;40.65;26.89;99670.77;104824;1276;74718;-71
2022/07/01 06:46:14;;;;;;;9.90;3.80;;;;;;;40.57;27.04;99666.08;104960;1276;68444;-79
2022/07/01 06:49:03;;;;;;;9.60;3.90;;;;;;;40.46;27.03;99666.59;104827;1276;72786;-79
2022/07/01 06:51:51;;;;;;;14.10;4.20;;;;;;;40.44;26.77;99659.69;104790;1276;59829;-78
2022/07/01 06:54:39;;;;;;;9.60;4.40;;;;;;;40.45;26.60;99662.85;104631;1276;59613;-77
2022/07/01 06:57:28;;;;;;;12.10;4.10;;;;;;;40.43;26.37;99657.00;104936;1276;73110;-79
2022/07/01 07:00:16;;;;;;;11.20;4.00;;;;;;;40.57;26.24;99658.66;105122;1276;68876;-79
2022/07/01 07:03:04;;;;;;;14.40;4.50;;;;;;;40.60;26.06;99662.66;104922;1277;74673;-73
2022/07/01 07:05:53;;;;;;;12.80;4.40;;;;;;;40.62;25.99;99660.34;105058;1276;59634;-76
2022/07/01 07:08:41;;;;;;;10.50;4.20;;;;;;;40.91;25.94;99659.41;105279;1276;60569;-75
2022/07/01 07:11:28;;;;;;;12.60;3.80;;;;;;;41.11;25.42;99660.38;105481;1276;73143;-77
2022/07/01 07:14:16;;;;;;;15.80;4.90;;;;;;;41.19;25.33;99662.77;105553;1274;68586;-78
2022/07/01 07:17:04;;;;;;;11.20;4.10;;;;;;;41.46;25.08;99662.63;105075;1274;72883;-84
2022/07/01 07:19:53;;;;;;;13.90;4.20;;;;;;;41.52;24.98;99661.02;105449;1274;59700;-78
2022/07/01 07:22:41;;;;;;;11.50;4.10;;;;;;;41.65;24.61;99664.55;105003;1273;59650;-76
2022/07/01 07:25:31;;;;;;;13.10;4.00;;;;;;;41.62;24.77;99663.39;105316;1271;73017;-73
2022/07/01 07:28:19;;;;;;;11.90;3.90;;;;;;;41.86;24.73;99669.68;105593;1274;68092;-78
2022/07/01 07:31:07;;;;;;;12.30;3.90;;;;;;;42.21;24.14;99669.60;105288;1273;71556;-77
2022/07/01 07:33:55;;;;;;;10.80;3.90;;;;;;;42.35;24.13;99668.92;105127;1274;59914;-76
2022/07/01 07:36:43;;;;;;;11.40;4.00;;;;;;;42.45;24.02;99664.64;105097;1274;59633;-78
2022/07/01 07:39:31;;;;;;;13.60;4.10;;;;;;;42.66;23.90;99661.98;105087;1273;73002;-78
2022/07/01 07:42:19;;;;;;;11.30;3.70;;;;;;;42.75;23.57;99659.52;105344;1273;67787;-80
2022/07/01 07:45:08;;;;;;;10.60;3.60;;;;;;;42.83;22.81;99657.53;105618;1274;71714;-78
2022/07/01 07:47:56;;;;;;;11.50;3.60;;;;;;;42.87;22.54;99662.41;105313;1273;59759;-79
2022/07/01 07:50:44;;;;;;;12.10;4.20;;;;;;;42.97;21.87;99665.45;105327;1274;60105;-76
2022/07/01 07:53:33;;;;;;;11.50;3.30;;;;;;;43.06;21.64;99670.86;105326;1273;73066;-78
2022/07/01 07:56:21;;;;;;;10.10;3.10;;;;;;;42.97;21.12;99670.31;105148;1274;66860;-79
2022/07/01 07:59:09;;;;;;;9.50;3.10;;;;;;;42.81;21.71;99658.60;105178;1273;74547;-78
2022/07/01 08:01:57;;;;;;;10.20;3.20;;;;;;;43.06;21.60;99661.13;105042;1276;59768;-77
2022/07/01 08:04:44;;;;;;;10.70;3.10;;;;;;;43.16;20.94;99661.30;104715;1276;60693;-78
2022/07/01 08:07:38;;;;;;;11.00;3.80;;;;;;;42.79;21.20;99653.09;104904;1276;73257;-76
2022/07/01 08:10:26;;;;;;;10.00;3.40;;;;;;;42.58;21.35;99656.98;104626;1277;67059;-79
2022/07/01 08:13:14;;;;;;;9.00;2.90;;;;;;;42.39;21.72;99650.73;104837;1277;71347;-77
2022/07/01 08:16:03;;;;;;;10.70;3.60;;;;;;;42.28;21.82;99650.39;104668;1277;59575;-76
2022/07/01 08:18:51;;;;;;;8.70;3.60;;;;;;;42.09;22.43;99651.98;104623;1277;59661;-78
2022/07/01 08:21:42;;;;;;;11.10;3.60;;;;;;;42.23;22.24;99652.81;104745;1276;72574;-77
2022/07/01 08:24:30;;;;;;;11.10;3.80;;;;;;;41.95;22.63;99649.05;104997;1276;66448;-77
2022/07/01 08:27:18;;;;;;;12.20;3.80;;;;;;;42.10;22.71;99646.69;104988;1276;73329;-79
2022/07/01 08:30:07;;;;;;;9.60;3.30;;;;;;;42.37;22.31;99649.34;104701;1276;59673;-77
2022/07/01 08:32:55;;;;;;;12.00;4.10;;;;;;;41.81;23.00;99650.51;104766;1273;59685;-77
2022/07/01 08:35:43;;;;;;;10.80;3.90;;;;;;;40.73;24.60;99643.43;104755;1276;72003;-74
2022/07/01 08:38:36;;;;;;;10.10;4.60;;;;;;;39.59;25.04;99645.94;104670;1276;66959;-75
2022/07/01 08:41:25;;;;;;;11.80;4.20;;;;;;;39.45;25.88;99647.44;104708;1276;73153;-78
2022/07/01 08:44:14;;;;;;;13.10;4.60;;;;;;;39.99;25.67;99645.75;104573;1276;59735;-76
2022/07/01 08:47:17;;;;;;;12.10;4.40;;;;;;;40.27;25.09;99644.81;104891;1276;59610;-78
2022/07/01 08:50:08;;;;;;;12.70;4.40;;;;;;;40.87;25.11;99634.16;104750;1276;72991;-78
2022/07/01 08:52:58;;;;;;;10.00;4.20;;;;;;;41.47;24.46;99630.56;105043;1276;68371;-77
2022/07/01 08:58:56;;;;;;;10.50;3.80;;;;;;;42.16;23.42;99628.54;104930;1276;59683;-78
2022/07/01 09:01:46;;;;;;;11.00;4.00;;;;;;;42.44;22.87;99633.65;104888;1276;59600;-76
2022/07/01 09:04:34;;;;;;;11.60;4.00;;;;;;;42.46;22.55;99636.11;104788;1276;73822;-79
2022/07/01 09:07:33;;;;;;;12.80;3.90;;;;;;;42.54;22.39;99638.20;104933;1273;69492;-77
2022/07/01 09:10:34;;;;;;;12.90;4.60;;;;;;;42.67;22.04;99637.91;104834;1274;72635;-78
2022/07/01 09:13:22;;;;;;;21.60;5.20;;;;;;;42.73;22.32;99638.91;104839;1274;59743;-78
2022/07/01 09:16:19;;;;;;;14.30;4.70;;;;;;;42.65;22.48;99641.37;105231;1274;59640;-79
2022/07/01 09:19:07;;;;;;;15.10;5.20;;;;;;;42.71;22.49;99637.55;104994;1274;70912;-79
2022/07/01 09:22:02;;;;;;;13.40;5.10;;;;;;;42.59;22.72;99638.49;105165;1274;66853;-79
2022/07/01 09:24:51;;;;;;;12.00;5.00;;;;;;;42.58;22.85;99636.62;105222;1272;72613;-78
2022/07/01 09:27:43;;;;;;;12.00;4.60;;;;;;;42.88;22.74;99632.45;105190;1273;59933;-79
2022/07/01 09:30:32;;;;;;;14.40;5.00;;;;;;;43.03;22.30;99628.80;105205;1274;60711;-80
2022/07/01 09:33:27;;;;;;;14.10;4.90;;;;;;;43.17;22.35;99626.97;105084;1274;73157;-79
2022/07/01 09:36:16;;;;;;;10.80;4.70;;;;;;;43.17;22.47;99625.52;105178;1274;66687;-79
2022/07/01 09:39:05;;;;;;;12.20;5.00;;;;;;;43.04;22.54;99625.82;105953;1273;72929;-79
2022/07/01 09:42:19;;;;;;;11.80;4.60;;;;;;;42.86;22.83;99626.33;105082;1274;59752;-79
2022/07/01 09:45:10;;;;;;;14.00;5.10;;;;;;;42.83;22.79;99629.27;105522;1273;60349;-79
2022/07/01 09:48:02;;;;;;;15.00;5.50;;;;;;;42.57;22.97;99630.73;105311;1273;71860;-79
2022/07/01 09:50:51;;;;;;;16.70;5.10;;;;;;;42.32;23.15;99626.80;104758;1274;66822;-79
2022/07/01 09:53:39;;;;;;;12.20;5.20;;;;;;;41.44;24.44;99622.05;105270;1273;71384;-77
2022/07/01 09:56:27;;;;;;;13.60;5.30;;;;;;;40.46;25.24;99624.56;104749;1274;59747;-79
2022/07/01 09:59:15;;;;;;;11.70;5.10;;;;;;;40.11;25.97;99618.86;105081;1274;60398;-81
2022/07/01 10:02:07;;;;;;;14.00;5.40;;;;;;;39.96;26.21;99612.52;105188;1274;73658;-80
2022/07/01 10:05:07;;;;;;;12.70;5.30;;;;;;;39.95;26.29;99609.77;105201;1274;68126;-78
2022/07/01 10:08:34;;;;;;;14.00;5.30;;;;;;;39.95;26.30;99618.39;105251;1274;71305;-79
2022/07/01 10:11:39;;;;;;;10.60;5.10;;;;;;;40.05;26.55;99622.77;105147;1274;59701;-78
2022/07/01 10:14:30;;;;;;;11.40;5.50;;;;;;;40.17;25.87;99637.71;105558;1273;60454;-79
2022/07/01 10:17:31;;;;;;;13.40;5.50;;;;;;;40.42;25.76;99640.63;104794;1273;73774;-78
2022/07/01 10:20:29;;;;;;;12.80;5.60;;;;;;;40.06;25.92;99639.56;105291;1273;67995;-75
2022/07/01 10:23:22;;;;;;;12.50;5.30;;;;;;;38.82;27.21;99643.23;105334;1274;71758;-77
2022/07/01 10:26:29;;;;;;;12.60;5.90;;;;;;;37.34;29.07;99659.39;105308;1274;59688;-77
2022/07/01 10:29:36;;;;;;;10.10;4.90;;;;;;;35.95;30.60;99657.25;105273;1274;59569;-76
2022/07/01 10:32:24;;;;;;;14.40;5.70;;;;;;;34.84;32.33;99654.58;104956;1273;74021;-75
2022/07/01 10:35:46;;;;;;;12.90;6.40;;;;;;;33.73;34.48;99656.81;105395;1274;67917;-77
2022/07/01 10:39:10;;;;;;;12.60;6.60;;;;;;;32.82;36.74;99664.63;105099;1274;72317;-76
2022/07/01 10:42:08;;;;;;;12.10;6.90;;;;;;;31.93;40.05;99667.38;105366;1274;59595;-76
2022/07/01 10:45:11;;;;;;;12.90;7.30;;;;;;;31.36;42.54;99669.54;104943;1274;59532;-76
2022/07/01 10:48:25;;;;;;;15.50;8.00;;;;;;;30.85;45.87;99660.30;105143;1274;73145;-76
2022/07/01 10:51:17;;;;;;;13.80;7.20;;;;;;;30.30;49.87;99648.94;104817;1274;69432;-74
2022/07/01 10:54:08;;;;;;;15.20;8.20;;;;;;;29.97;52.44;99649.88;104910;1273;72594;-77
2022/07/01 10:56:56;;;;;;;15.30;8.80;;;;;;;29.79;54.44;99650.67;104699;1274;59659;-73
2022/07/01 10:59:52;;;;;;;18.00;9.30;;;;;;;29.77;54.44;99651.70;104945;1274;60404;-73
2022/07/01 11:02:39;;;;;;;15.90;9.50;;;;;;;30.30;52.90;99646.91;104985;1274;73454;-70
2022/07/01 11:05:30;;;;;;;14.60;10.10;;;;;;;30.53;52.77;99653.11;105309;1274;69212;-73
2022/07/01 11:08:19;;;;;;;16.60;10.50;;;;;;;30.10;53.06;99640.89;104881;1274;72784;-75
2022/07/01 11:11:14;;;;;;;16.30;10.40;;;;;;;29.84;53.75;99624.33;104988;1274;59666;-76
2022/07/01 11:14:02;;;;;;;17.00;10.80;;;;;;;29.68;54.45;99625.45;105186;1274;60237;-74
2022/07/01 11:16:51;;;;;;;18.60;10.90;;;;;;;29.69;54.95;99626.01;104953;1273;73084;-74
2022/07/01 11:19:39;;;;;;;19.70;11.90;;;;;;;29.64;54.92;99622.60;104915;1274;69581;-73
2022/07/01 11:22:33;;;;;;;22.40;11.40;;;;;;;29.70;55.18;99624.33;104876;1273;72193;-76
2022/07/01 11:25:21;;;;;;;18.60;10.50;;;;;;;29.88;54.75;99623.75;104842;1274;59649;-74
2022/07/01 11:28:12;;;;;;;20.20;12.50;;;;;;;30.02;54.58;99618.92;104871;1274;62325;-73
2022/07/01 11:31:01;;;;;;;18.90;12.30;;;;;;;30.11;54.11;99616.22;104863;1272;73553;-73
2022/07/01 11:33:50;;;;;;;19.70;11.80;;;;;;;30.31;53.61;99619.81;104965;1274;67205;-72
2022/07/01 11:39:50;;;;;;;17.40;11.30;;;;;;;30.37;53.52;99615.36;104750;1274;59714;-72
2022/07/01 11:42:39;;;;;;;16.80;12.40;;;;;;;30.51;53.53;99606.71;105188;1272;59663;-74
2022/07/01 11:45:32;;;;;;;16.90;9.90;;;;;;;30.93;52.47;99598.60;105173;1273;73138;-75
2022/07/01 11:48:44;;;;;;;14.60;8.70;;;;;;;31.23;46.79;99595.88;105257;1274;68988;-78
2022/07/01 11:51:34;;;;;;;15.90;8.00;;;;;;;31.16;42.50;99591.51;105138;1273;73463;-77
2022/07/01 11:54:22;;;;;;;11.40;7.40;;;;;;;31.09;42.18;99588.98;105067;1274;59694;-75
2022/07/01 11:57:23;;;;;;;14.40;7.50;;;;;;;30.90;41.74;99586.44;105277;1272;60801;-75
2022/07/01 12:00:13;;;;;;;13.60;8.20;;;;;;;31.08;42.45;99579.27;105389;1274;72168;-72
2022/07/01 12:03:07;;;;;;;11.60;8.00;;;;;;;31.27;42.09;99574.23;104948;1272;66896;-73
2022/07/01 12:05:55;;;;;;;14.20;8.30;;;;;;;31.38;41.77;99566.08;105187;1274;73374;-75
2022/07/01 12:08:46;;;;;;;15.30;7.80;;;;;;;31.56;41.72;99566.98;105086;1274;59794;-76
2022/07/01 12:11:34;;;;;;;13.50;7.80;;;;;;;31.67;41.81;99564.71;105412;1274;59537;-77
2022/07/01 12:14:33;;;;;;;15.80;9.50;;;;;;;32.01;43.55;99561.02;105262;1274;74106;-77
2022/07/01 12:17:23;;;;;;;15.30;9.30;;;;;;;32.28;43.74;99559.86;105819;1273;66599;-77
2022/07/01 12:20:11;;;;;;;16.40;9.00;;;;;;;32.36;43.73;99554.29;105864;1274;74063;-79
2022/07/01 12:23:14;;;;;;;14.20;9.00;;;;;;;32.37;43.33;99554.83;106053;1271;59766;-78
2022/07/01 12:26:05;;;;;;;16.70;9.00;;;;;;;32.32;43.21;99554.45;105721;1273;59640;-80
2022/07/01 12:28:54;;;;;;;17.00;8.60;;;;;;;32.20;43.47;99553.52;105679;1274;70662;-81
2022/07/01 12:31:42;;;;;;;14.50;8.10;;;;;;;32.17;42.82;99548.39;105354;1274;66700;-80
2022/07/01 12:34:36;;;;;;;13.50;8.40;;;;;;;31.94;42.60;99543.53;105912;1274;73044;-81
2022/07/01 12:37:36;;;;;;;12.10;8.40;;;;;;;31.83;43.33;99539.77;105093;1274;60996;-77
2022/07/01 12:40:29;;;;;;;17.80;8.80;;;;;;;31.84;43.84;99536.38;105458;1273;59836;-84
2022/07/01 12:43:30;;;;;;;18.20;9.20;;;;;;;31.84;43.77;99529.00;105420;1273;73339;-81
2022/07/01 12:46:29;;;;;;;11.40;8.40;;;;;;;31.83;43.72;99518.92;105400;1274;65633;-82
2022/07/01 12:49:25;;;;;;;13.50;8.00;;;;;;;31.82;43.46;99515.84;105219;1272;71728;-81
2022/07/01 12:52:28;;;;;;;12.00;7.70;;;;;;;31.80;42.38;99510.33;105301;1274;59669;-81
2022/07/01 12:55:20;;;;;;;13.60;7.90;;;;;;;31.83;42.88;99505.95;105243;1274;60336;-80
2022/07/01 12:58:16;;;;;;;15.00;7.60;;;;;;;31.89;42.32;99500.23;105165;1274;72045;-81
2022/07/01 13:01:04;;;;;;;14.90;7.60;;;;;;;31.96;41.53;99503.25;105331;1273;65667;-79
2022/07/01 13:03:52;;;;;;;15.30;7.30;;;;;;;31.97;41.17;99499.45;105195;1274;72568;-81
2022/07/01 13:06:41;;;;;;;18.40;7.10;;;;;;;31.98;40.76;99495.82;105260;1273;59657;-80
2022/07/01 13:09:29;;;;;;;13.30;6.60;;;;;;;31.99;40.47;99495.32;105153;1274;60414;-81
2022/07/01 13:12:23;;;;;;;12.60;7.10;;;;;;;31.83;40.93;99493.39;105266;1274;73468;-81
2022/07/01 13:15:16;;;;;;;11.10;6.20;;;;;;;31.68;41.50;99486.45;105203;1274;67922;-81
2022/07/01 13:18:07;;;;;;;15.40;6.30;;;;;;;31.75;42.02;99485.15;105261;1274;73155;-80
2022/07/01 13:20:57;;;;;;;16.10;7.10;;;;;;;31.84;42.09;99484.94;105120;1274;59751;-80